sensor_id;sensor_type;location;lat;lon;timestamp;pressure;altitude;pressure_sealevel;temperature
49567;BMP280;35472;50.514;30.448;2024-01-30T00:01:41;102430.19;;;0.21
49567;BMP280;35472;50.514;30.448;2024-01-30T00:04:06;102430.25;;;0.31
49567;BMP280;35472;50.514;30.448;2024-01-30T00:06:32;102427.28;;;0.12
49567;BMP280;35472;50.514;30.448;2024-01-30T00:09:01;102434.91;;;0.04
49567;BMP280;35472;50.514;30.448;2024-01-30T00:11:27;102430.47;;;0.24
49567;BMP280;35472;50.514;30.448;2024-01-30T00:13:54;102427.78;;;0.19
49567;BMP280;35472;50.514;30.448;2024-01-30T00:16:25;102430.19;;;0.21
49567;BMP280;35472;50.514;30.448;2024-01-30T00:18:53;102425.94;;;0.20
49567;BMP280;35472;50.514;30.448;2024-01-30T00:21:19;102427.31;;;0.27
49567;BMP280;35472;50.514;30.448;2024-01-30T00:23:45;102416.94;;;0.11
49567;BMP280;35472;50.514;30.448;2024-01-30T00:26:11;102429.63;;;0.04
49567;BMP280;35472;50.514;30.448;2024-01-30T00:28:40;102420.84;;;-0.07
49567;BMP280;35472;50.514;30.448;2024-01-30T00:31:06;102415.09;;;0.21
49567;BMP280;35472;50.514;30.448;2024-01-30T00:33:31;102407.88;;;-0.04
49567;BMP280;35472;50.514;30.448;2024-01-30T00:35:57;102419.50;;;-0.10
49567;BMP280;35472;50.514;30.448;2024-01-30T00:38:22;102406.34;;;0.06
49567;BMP280;35472;50.514;30.448;2024-01-30T00:40:48;102402.66;;;0.12
49567;BMP280;35472;50.514;30.448;2024-01-30T00:43:15;102398.16;;;0.12
49567;BMP280;35472;50.514;30.448;2024-01-30T00:45:41;102400.75;;;0.07
49567;BMP280;35472;50.514;30.448;2024-01-30T00:48:06;102389.59;;;-0.10
49567;BMP280;35472;50.514;30.448;2024-01-30T00:50:32;102386.22;;;0.10
49567;BMP280;35472;50.514;30.448;2024-01-30T00:52:57;102383.56;;;-0.01
49567;BMP280;35472;50.514;30.448;2024-01-30T00:55:22;102383.47;;;-0.16
49567;BMP280;35472;50.514;30.448;2024-01-30T00:57:48;102374.75;;;-0.16
49567;BMP280;35472;50.514;30.448;2024-01-30T01:00:13;102374.75;;;-0.21
49567;BMP280;35472;50.514;30.448;2024-01-30T01:02:44;102375.53;;;-0.21
49567;BMP280;35472;50.514;30.448;2024-01-30T01:05:12;102368.41;;;-0.20
49567;BMP280;35472;50.514;30.448;2024-01-30T01:07:37;102356.91;;;-0.41
49567;BMP280;35472;50.514;30.448;2024-01-30T01:10:03;102350.56;;;-0.35
49567;BMP280;35472;50.514;30.448;2024-01-30T01:12:29;102347.34;;;-0.47
49567;BMP280;35472;50.514;30.448;2024-01-30T01:14:54;102340.47;;;-0.48
49567;BMP280;35472;50.514;30.448;2024-01-30T01:17:19;102339.88;;;-0.60
49567;BMP280;35472;50.514;30.448;2024-01-30T01:19:45;102345.81;;;-0.38
49567;BMP280;35472;50.514;30.448;2024-01-30T01:22:10;102335.03;;;-0.31
49567;BMP280;35472;50.514;30.448;2024-01-30T01:24:36;102332.03;;;-0.45
49567;BMP280;35472;50.514;30.448;2024-01-30T01:27:01;102337.59;;;-0.36
49567;BMP280;35472;50.514;30.448;2024-01-30T01:29:27;102329.38;;;-0.50
49567;BMP280;35472;50.514;30.448;2024-01-30T01:31:56;102326.44;;;-0.49
49567;BMP280;35472;50.514;30.448;2024-01-30T01:34:25;102311.47;;;-0.85
49567;BMP280;35472;50.514;30.448;2024-01-30T01:36:51;102301.50;;;-0.68
49567;BMP280;35472;50.514;30.448;2024-01-30T01:39:17;102310.69;;;-0.81
49567;BMP280;35472;50.514;30.448;2024-01-30T01:41:43;102294.91;;;-0.60
49567;BMP280;35472;50.514;30.448;2024-01-30T01:44:08;102293.56;;;-0.68
49567;BMP280;35472;50.514;30.448;2024-01-30T01:46:34;102290.19;;;-0.53
49567;BMP280;35472;50.514;30.448;2024-01-30T01:49:02;102287.00;;;-0.55
49567;BMP280;35472;50.514;30.448;2024-01-30T01:51:28;102286.75;;;-0.54
49567;BMP280;35472;50.514;30.448;2024-01-30T01:53:55;102278.47;;;-0.72
49567;BMP280;35472;50.514;30.448;2024-01-30T01:56:23;102289.53;;;-0.81
49567;BMP280;35472;50.514;30.448;2024-01-30T01:58:49;102289.63;;;-0.60
49567;BMP280;35472;50.514;30.448;2024-01-30T02:01:18;102284.31;;;-0.70
49567;BMP280;35472;50.514;30.448;2024-01-30T02:03:46;102286.19;;;-0.61
49567;BMP280;35472;50.514;30.448;2024-01-30T02:06:14;102269.97;;;-0.80
49567;BMP280;35472;50.514;30.448;2024-01-30T02:08:40;102273.97;;;-0.77
49567;BMP280;35472;50.514;30.448;2024-01-30T02:11:05;102279.75;;;-0.80
49567;BMP280;35472;50.514;30.448;2024-01-30T02:13:30;102267.00;;;-0.93
49567;BMP280;35472;50.514;30.448;2024-01-30T02:15:56;102262.50;;;-0.98
49567;BMP280;35472;50.514;30.448;2024-01-30T02:18:22;102275.25;;;-0.85
49567;BMP280;35472;50.514;30.448;2024-01-30T02:20:48;102273.97;;;-0.82
49567;BMP280;35472;50.514;30.448;2024-01-30T02:23:15;102280.16;;;-1.08
49567;BMP280;35472;50.514;30.448;2024-01-30T02:25:41;102272.59;;;-0.85
49567;BMP280;35472;50.514;30.448;2024-01-30T02:28:13;102269.94;;;-0.90
49567;BMP280;35472;50.514;30.448;2024-01-30T02:30:39;102272.03;;;-0.92
49567;BMP280;35472;50.514;30.448;2024-01-30T02:33:04;102279.13;;;-1.02
49567;BMP280;35472;50.514;30.448;2024-01-30T02:35:30;102277.84;;;-0.95
49567;BMP280;35472;50.514;30.448;2024-01-30T02:37:55;102273.63;;;-0.96
49567;BMP280;35472;50.514;30.448;2024-01-30T02:40:21;102287.34;;;-0.99
49567;BMP280;35472;50.514;30.448;2024-01-30T02:42:46;102286.00;;;-1.06
49567;BMP280;35472;50.514;30.448;2024-01-30T02:45:12;102282.56;;;-1.07
49567;BMP280;35472;50.514;30.448;2024-01-30T02:47:40;102288.16;;;-0.93
49567;BMP280;35472;50.514;30.448;2024-01-30T02:50:06;102287.56;;;-1.05
49567;BMP280;35472;50.514;30.448;2024-01-30T02:52:31;102280.81;;;-0.81
49567;BMP280;35472;50.514;30.448;2024-01-30T02:54:57;102280.22;;;-0.93
49567;BMP280;35472;50.514;30.448;2024-01-30T02:57:22;102278.38;;;-0.93
49567;BMP280;35472;50.514;30.448;2024-01-30T02:59:47;102266.16;;;-1.09
49567;BMP280;35472;50.514;30.448;2024-01-30T03:02:13;102264.91;;;-0.96
49567;BMP280;35472;50.514;30.448;2024-01-30T03:04:41;102265.44;;;-0.94
49567;BMP280;35472;50.514;30.448;2024-01-30T03:07:06;102273.50;;;-1.16
49567;BMP280;35472;50.514;30.448;2024-01-30T03:09:36;102265.16;;;-0.93
49567;BMP280;35472;50.514;30.448;2024-01-30T03:12:05;102273.06;;;-0.98
49567;BMP280;35472;50.514;30.448;2024-01-30T03:14:30;102271.00;;;-0.91
49567;BMP280;35472;50.514;30.448;2024-01-30T03:16:56;102278.84;;;-1.06
49567;BMP280;35472;50.514;30.448;2024-01-30T03:19:21;102285.56;;;-0.88
49567;BMP280;35472;50.514;30.448;2024-01-30T03:21:47;102280.44;;;-1.05
49567;BMP280;35472;50.514;30.448;2024-01-30T03:24:14;102285.56;;;-0.88
49567;BMP280;35472;50.514;30.448;2024-01-30T03:26:39;102271.53;;;-0.89
49567;BMP280;35472;50.514;30.448;2024-01-30T03:29:05;102264.31;;;-1.03
49567;BMP280;35472;50.514;30.448;2024-01-30T03:31:30;102261.78;;;-0.88
49567;BMP280;35472;50.514;30.448;2024-01-30T03:33:56;102262.81;;;-0.89
49567;BMP280;35472;50.514;30.448;2024-01-30T03:36:21;102267.06;;;-0.88
49567;BMP280;35472;50.514;30.448;2024-01-30T03:38:46;102264.91;;;-0.91
49567;BMP280;35472;50.514;30.448;2024-01-30T03:41:12;102258.25;;;-0.99
49567;BMP280;35472;50.514;30.448;2024-01-30T03:43:37;102261.78;;;-0.83
49567;BMP280;35472;50.514;30.448;2024-01-30T03:46:03;102264.13;;;-0.92
49567;BMP280;35472;50.514;30.448;2024-01-30T03:48:29;102261.25;;;-0.85
49567;BMP280;35472;50.514;30.448;2024-01-30T03:50:54;102260.16;;;-0.94
49567;BMP280;35472;50.514;30.448;2024-01-30T03:53:20;102263.88;;;-0.85
49567;BMP280;35472;50.514;30.448;2024-01-30T03:55:45;102249.47;;;-1.14
49567;BMP280;35472;50.514;30.448;2024-01-30T03:58:12;102254.50;;;-1.13
49567;BMP280;35472;50.514;30.448;2024-01-30T04:00:38;102256.63;;;-1.10
49567;BMP280;35472;50.514;30.448;2024-01-30T04:03:03;102256.63;;;-1.10
49567;BMP280;35472;50.514;30.448;2024-01-30T04:05:29;102257.97;;;-1.07
49567;BMP280;35472;50.514;30.448;2024-01-30T04:07:54;102265.09;;;-1.08
49567;BMP280;35472;50.514;30.448;2024-01-30T04:10:20;102248.16;;;-1.12
49567;BMP280;35472;50.514;30.448;2024-01-30T04:12:45;102236.25;;;-1.14
49567;BMP280;35472;50.514;30.448;2024-01-30T04:15:11;102254.72;;;-1.19
49567;BMP280;35472;50.514;30.448;2024-01-30T04:17:40;102242.63;;;-1.10
49567;BMP280;35472;50.514;30.448;2024-01-30T04:20:06;102246.34;;;-1.06
49567;BMP280;35472;50.514;30.448;2024-01-30T04:22:32;102251.31;;;-1.15
49567;BMP280;35472;50.514;30.448;2024-01-30T04:24:57;102245.72;;;-1.18
49567;BMP280;35472;50.514;30.448;2024-01-30T04:27:23;102236.47;;;-1.26
49567;BMP280;35472;50.514;30.448;2024-01-30T04:29:48;102237.03;;;-1.19
49567;BMP280;35472;50.514;30.448;2024-01-30T04:32:13;102240.34;;;-1.34
49567;BMP280;35472;50.514;30.448;2024-01-30T04:34:39;102234.94;;;-1.12
49567;BMP280;35472;50.514;30.448;2024-01-30T04:37:04;102245.50;;;-1.12
49567;BMP280;35472;50.514;30.448;2024-01-30T04:39:30;102244.88;;;-1.29
49567;BMP280;35472;50.514;30.448;2024-01-30T04:41:55;102244.03;;;-1.35
49567;BMP280;35472;50.514;30.448;2024-01-30T04:44:20;102239.44;;;-1.12
49567;BMP280;35472;50.514;30.448;2024-01-30T04:46:46;102239.19;;;-1.06
49567;BMP280;35472;50.514;30.448;2024-01-30T04:49:11;102240.53;;;-1.03
49567;BMP280;35472;50.514;30.448;2024-01-30T04:51:39;102238.72;;;-0.98
49567;BMP280;35472;50.514;30.448;2024-01-30T04:54:04;102241.06;;;-1.06
49567;BMP280;35472;50.514;30.448;2024-01-30T04:56:33;102234.53;;;-0.89
49567;BMP280;35472;50.514;30.448;2024-01-30T04:59:01;102243.97;;;-1.08
49567;BMP280;35472;50.514;30.448;2024-01-30T05:01:31;102239.91;;;-1.26
49567;BMP280;35472;50.514;30.448;2024-01-30T05:03:56;102238.72;;;-1.40
49567;BMP280;35472;50.514;30.448;2024-01-30T05:06:26;102238.06;;;-1.25
49567;BMP280;35472;50.514;30.448;2024-01-30T05:08:51;102230.88;;;-1.30
49567;BMP280;35472;50.514;30.448;2024-01-30T05:11:16;102229.34;;;-1.26
49567;BMP280;35472;50.514;30.448;2024-01-30T05:13:42;102226.47;;;-1.19
49567;BMP280;35472;50.514;30.448;2024-01-30T05:16:07;102226.81;;;-1.42
49567;BMP280;35472;50.514;30.448;2024-01-30T05:18:32;102233.47;;;-1.35
49567;BMP280;35472;50.514;30.448;2024-01-30T05:20:58;102225.41;;;-1.55
49567;BMP280;35472;50.514;30.448;2024-01-30T05:23:23;102233.13;;;-1.43
49567;BMP280;35472;50.514;30.448;2024-01-30T05:25:49;102228.81;;;-1.23
49567;BMP280;35472;50.514;30.448;2024-01-30T05:28:14;102235.50;;;-1.47
49567;BMP280;35472;50.514;30.448;2024-01-30T05:30:39;102231.19;;;-1.63
49567;BMP280;35472;50.514;30.448;2024-01-30T05:33:05;102234.34;;;-1.61
49567;BMP280;35472;50.514;30.448;2024-01-30T05:35:30;102234.75;;;-1.37
49567;BMP280;35472;50.514;30.448;2024-01-30T05:37:56;102230.72;;;-1.50
49567;BMP280;35472;50.514;30.448;2024-01-30T05:40:21;102238.72;;;-1.40
49567;BMP280;35472;50.514;30.448;2024-01-30T05:42:47;102224.59;;;-1.55
49567;BMP280;35472;50.514;30.448;2024-01-30T05:45:13;102234.63;;;-1.63
49567;BMP280;35472;50.514;30.448;2024-01-30T05:47:40;102226.72;;;-1.57
49567;BMP280;35472;50.514;30.448;2024-01-30T05:50:06;102230.00;;;-1.40
49567;BMP280;35472;50.514;30.448;2024-01-30T05:52:32;102225.69;;;-1.56
49567;BMP280;35472;50.514;30.448;2024-01-30T05:54:57;102233.63;;;-1.51
49567;BMP280;35472;50.514;30.448;2024-01-30T05:57:22;102238.47;;;-1.38
49567;BMP280;35472;50.514;30.448;2024-01-30T05:59:47;102237.75;;;-1.29
49567;BMP280;35472;50.514;30.448;2024-01-30T06:02:13;102243.44;;;-1.05
49567;BMP280;35472;50.514;30.448;2024-01-30T06:04:39;102253.38;;;-1.22
49567;BMP280;35472;50.514;30.448;2024-01-30T06:07:04;102242.38;;;-1.04
49567;BMP280;35472;50.514;30.448;2024-01-30T06:09:31;102242.31;;;-1.19
49567;BMP280;35472;50.514;30.448;2024-01-30T06:11:57;102238.38;;;-1.11
49567;BMP280;35472;50.514;30.448;2024-01-30T06:14:22;102234.75;;;-1.00
49567;BMP280;35472;50.514;30.448;2024-01-30T06:16:47;102242.03;;;-0.60
49567;BMP280;35472;50.514;30.448;2024-01-30T06:19:13;102234.75;;;0.43
49567;BMP280;35472;50.514;30.448;2024-01-30T06:21:38;102233.59;;;0.90
49567;BMP280;35472;50.514;30.448;2024-01-30T06:24:04;102234.38;;;1.44
49567;BMP280;35472;50.514;30.448;2024-01-30T06:26:30;102232.28;;;1.85
49567;BMP280;35472;50.514;30.448;2024-01-30T06:28:55;102227.97;;;1.89
49567;BMP280;35472;50.514;30.448;2024-01-30T06:31:21;102225.34;;;2.47
49567;BMP280;35472;50.514;30.448;2024-01-30T06:33:47;102217.78;;;3.02
49567;BMP280;35472;50.514;30.448;2024-01-30T06:36:12;102226.88;;;3.19
49567;BMP280;35472;50.514;30.448;2024-01-30T06:38:40;102226.88;;;2.96
49567;BMP280;35472;50.514;30.448;2024-01-30T06:41:06;102233.81;;;3.53
49567;BMP280;35472;50.514;30.448;2024-01-30T06:43:31;102231.47;;;4.16
49567;BMP280;35472;50.514;30.448;2024-01-30T06:45:58;102236.78;;;3.51
49567;BMP280;35472;50.514;30.448;2024-01-30T06:48:24;102228.50;;;4.58
49567;BMP280;35472;50.514;30.448;2024-01-30T06:50:53;102229.41;;;4.40
49567;BMP280;35472;50.514;30.448;2024-01-30T06:53:19;102219.13;;;3.74
49567;BMP280;35472;50.514;30.448;2024-01-30T06:55:44;102209.22;;;4.89
49567;BMP280;35472;50.514;30.448;2024-01-30T06:58:09;102219.66;;;4.36
49567;BMP280;35472;50.514;30.448;2024-01-30T07:00:35;102224.56;;;4.70
49567;BMP280;35472;50.514;30.448;2024-01-30T07:03:00;102210.94;;;5.43
49567;BMP280;35472;50.514;30.448;2024-01-30T07:05:25;102216.16;;;5.48
49567;BMP280;35472;50.514;30.448;2024-01-30T07:07:51;102217.25;;;6.00
49567;BMP280;35472;50.514;30.448;2024-01-30T07:10:18;102212.41;;;4.63
49567;BMP280;35472;50.514;30.448;2024-01-30T07:12:44;102205.59;;;5.21
49567;BMP280;35472;50.514;30.448;2024-01-30T07:15:09;102213.53;;;4.35
49567;BMP280;35472;50.514;30.448;2024-01-30T07:17:35;102216.63;;;3.96
49567;BMP280;35472;50.514;30.448;2024-01-30T07:20:01;102216.38;;;3.47
49567;BMP280;35472;50.514;30.448;2024-01-30T07:22:29;102213.06;;;4.01
49567;BMP280;35472;50.514;30.448;2024-01-30T07:24:55;102199.19;;;4.17
49567;BMP280;35472;50.514;30.448;2024-01-30T07:27:24;102206.16;;;3.86
49567;BMP280;35472;50.514;30.448;2024-01-30T07:29:49;102215.19;;;4.31
49567;BMP280;35472;50.514;30.448;2024-01-30T07:32:16;102203.16;;;4.34
49567;BMP280;35472;50.514;30.448;2024-01-30T07:34:42;102206.44;;;3.85
49567;BMP280;35472;50.514;30.448;2024-01-30T07:37:07;102202.91;;;3.89
49567;BMP280;35472;50.514;30.448;2024-01-30T07:39:34;102198.50;;;3.66
49567;BMP280;35472;50.514;30.448;2024-01-30T07:42:02;102206.47;;;3.66
49567;BMP280;35472;50.514;30.448;2024-01-30T07:44:28;102203.16;;;3.74
49567;BMP280;35472;50.514;30.448;2024-01-30T07:46:53;102206.16;;;4.00
49567;BMP280;35472;50.514;30.448;2024-01-30T07:49:20;102210.88;;;3.89
49567;BMP280;35472;50.514;30.448;2024-01-30T07:51:45;102213.19;;;3.26
49567;BMP280;35472;50.514;30.448;2024-01-30T07:54:11;102204.38;;;3.30
49567;BMP280;35472;50.514;30.448;2024-01-30T07:56:37;102210.03;;;3.24
49567;BMP280;35472;50.514;30.448;2024-01-30T07:59:04;102204.16;;;3.78
49567;BMP280;35472;50.514;30.448;2024-01-30T08:01:29;102208.00;;;3.72
49567;BMP280;35472;50.514;30.448;2024-01-30T08:03:55;102206.78;;;3.27
49567;BMP280;35472;50.514;30.448;2024-01-30T08:06:23;102194.84;;;3.75
49567;BMP280;35472;50.514;30.448;2024-01-30T08:08:48;102194.00;;;3.80
49567;BMP280;35472;50.514;30.448;2024-01-30T08:11:14;102188.22;;;3.92
49567;BMP280;35472;50.514;30.448;2024-01-30T08:13:39;102180.50;;;3.58
49567;BMP280;35472;50.514;30.448;2024-01-30T08:16:07;102186.56;;;3.45
49567;BMP280;35472;50.514;30.448;2024-01-30T08:18:33;102175.59;;;3.65
49567;BMP280;35472;50.514;30.448;2024-01-30T08:20:58;102178.19;;;3.70
49567;BMP280;35472;50.514;30.448;2024-01-30T08:23:23;102182.44;;;3.71
49567;BMP280;35472;50.514;30.448;2024-01-30T08:25:49;102178.38;;;3.73
49567;BMP280;35472;50.514;30.448;2024-01-30T08:28:14;102177.94;;;3.85
49567;BMP280;35472;50.514;30.448;2024-01-30T08:30:39;102176.31;;;4.30
49567;BMP280;35472;50.514;30.448;2024-01-30T08:33:05;102179.88;;;4.12
49567;BMP280;35472;50.514;30.448;2024-01-30T08:35:30;102173.44;;;4.13
49567;BMP280;35472;50.514;30.448;2024-01-30T08:38:00;102182.63;;;3.42
49567;BMP280;35472;50.514;30.448;2024-01-30T08:40:25;102176.19;;;4.08
49567;BMP280;35472;50.514;30.448;2024-01-30T08:42:50;102169.78;;;3.63
49567;BMP280;35472;50.514;30.448;2024-01-30T08:45:16;102160.56;;;4.15
49567;BMP280;35472;50.514;30.448;2024-01-30T08:47:41;102154.59;;;4.23
49567;BMP280;35472;50.514;30.448;2024-01-30T08:50:07;102160.09;;;4.68
49567;BMP280;35472;50.514;30.448;2024-01-30T08:52:32;102145.78;;;4.22
49567;BMP280;35472;50.514;30.448;2024-01-30T08:54:59;102147.19;;;4.34
49567;BMP280;35472;50.514;30.448;2024-01-30T08:57:24;102151.88;;;3.82
49567;BMP280;35472;50.514;30.448;2024-01-30T08:59:55;102147.22;;;4.70
49567;BMP280;35472;50.514;30.448;2024-01-30T09:02:21;102137.31;;;4.34
49567;BMP280;35472;50.514;30.448;2024-01-30T09:04:46;102136.50;;;4.20
49567;BMP280;35472;50.514;30.448;2024-01-30T09:07:12;102135.31;;;4.26
49567;BMP280;35472;50.514;30.448;2024-01-30T09:09:39;102134.03;;;4.51
49567;BMP280;35472;50.514;30.448;2024-01-30T09:12:07;102130.06;;;4.98
49567;BMP280;35472;50.514;30.448;2024-01-30T09:14:35;102129.69;;;4.28
49567;BMP280;35472;50.514;30.448;2024-01-30T09:17:01;102121.63;;;4.68
49567;BMP280;35472;50.514;30.448;2024-01-30T09:19:28;102118.97;;;4.68
49567;BMP280;35472;50.514;30.448;2024-01-30T09:21:53;102122.69;;;4.81
49567;BMP280;35472;50.514;30.448;2024-01-30T09:24:19;102121.97;;;4.89
49567;BMP280;35472;50.514;30.448;2024-01-30T09:26:44;102123.44;;;5.18
49567;BMP280;35472;50.514;30.448;2024-01-30T09:29:09;102106.13;;;5.37
49567;BMP280;35472;50.514;30.448;2024-01-30T09:31:35;102107.34;;;5.31
49567;BMP280;35472;50.514;30.448;2024-01-30T09:34:00;102107.13;;;5.50
49567;BMP280;35472;50.514;30.448;2024-01-30T09:36:26;102105.34;;;4.92
49567;BMP280;35472;50.514;30.448;2024-01-30T09:38:52;102095.75;;;4.69
49567;BMP280;35472;50.514;30.448;2024-01-30T09:41:19;102094.88;;;5.18
49567;BMP280;35472;50.514;30.448;2024-01-30T09:43:47;102092.88;;;5.63
49567;BMP280;35472;50.514;30.448;2024-01-30T09:46:17;102087.25;;;5.34
49567;BMP280;35472;50.514;30.448;2024-01-30T09:48:46;102082.06;;;5.29
49567;BMP280;35472;50.514;30.448;2024-01-30T09:51:14;102080.38;;;5.41
49567;BMP280;35472;50.514;30.448;2024-01-30T09:53:40;102078.03;;;5.40
49567;BMP280;35472;50.514;30.448;2024-01-30T09:56:05;102072.84;;;5.12
49567;BMP280;35472;50.514;30.448;2024-01-30T09:58:31;102075.19;;;5.76
49567;BMP280;35472;50.514;30.448;2024-01-30T10:00:56;102066.91;;;5.86
49567;BMP280;35472;50.514;30.448;2024-01-30T10:03:21;102059.44;;;6.39
49567;BMP280;35472;50.514;30.448;2024-01-30T10:05:54;102061.13;;;6.18
49567;BMP280;35472;50.514;30.448;2024-01-30T10:08:20;102055.03;;;6.35
49567;BMP280;35472;50.514;30.448;2024-01-30T10:10:49;102055.16;;;6.56
49567;BMP280;35472;50.514;30.448;2024-01-30T10:13:15;102058.63;;;6.56
49567;BMP280;35472;50.514;30.448;2024-01-30T10:15:41;102055.19;;;6.30
49567;BMP280;35472;50.514;30.448;2024-01-30T10:18:07;102059.06;;;6.07
49567;BMP280;35472;50.514;30.448;2024-01-30T10:20:34;102058.94;;;6.12
49567;BMP280;35472;50.514;30.448;2024-01-30T10:22:59;102056.13;;;6.34
49567;BMP280;35472;50.514;30.448;2024-01-30T10:25:25;102046.34;;;6.12
49567;BMP280;35472;50.514;30.448;2024-01-30T10:27:55;102051.56;;;6.34
49567;BMP280;35472;50.514;30.448;2024-01-30T10:30:21;102047.63;;;6.23
49567;BMP280;35472;50.514;30.448;2024-01-30T10:32:49;102046.16;;;5.83
49567;BMP280;35472;50.514;30.448;2024-01-30T10:35:15;102035.66;;;6.38
49567;BMP280;35472;50.514;30.448;2024-01-30T10:37:43;102046.66;;;6.62
49567;BMP280;35472;50.514;30.448;2024-01-30T10:40:09;102044.31;;;6.52
49567;BMP280;35472;50.514;30.448;2024-01-30T10:42:42;102043.97;;;6.71
49567;BMP280;35472;50.514;30.448;2024-01-30T10:45:12;102046.69;;;6.54
49567;BMP280;35472;50.514;30.448;2024-01-30T10:47:40;102042.44;;;6.27
49567;BMP280;35472;50.514;30.448;2024-01-30T10:50:08;102036.94;;;6.40
49567;BMP280;35472;50.514;30.448;2024-01-30T10:52:34;102038.50;;;6.67
49567;BMP280;35472;50.514;30.448;2024-01-30T10:55:00;102037.25;;;6.39
49567;BMP280;35472;50.514;30.448;2024-01-30T10:57:26;102041.13;;;6.84
49567;BMP280;35472;50.514;30.448;2024-01-30T10:59:57;102037.13;;;7.16
49567;BMP280;35472;50.514;30.448;2024-01-30T11:02:24;102036.97;;;7.13
49567;BMP280;35472;50.514;30.448;2024-01-30T11:04:55;102024.53;;;7.08
49567;BMP280;35472;50.514;30.448;2024-01-30T11:07:25;102029.66;;;6.92
49567;BMP280;35472;50.514;30.448;2024-01-30T11:09:53;102023.66;;;6.70
49567;BMP280;35472;50.514;30.448;2024-01-30T11:12:22;102016.59;;;6.57
49567;BMP280;35472;50.514;30.448;2024-01-30T11:14:48;102024.19;;;6.46
49567;BMP280;35472;50.514;30.448;2024-01-30T11:17:13;102017.31;;;7.00
49567;BMP280;35472;50.514;30.448;2024-01-30T11:19:41;102015.53;;;6.66
49567;BMP280;35472;50.514;30.448;2024-01-30T11:22:07;102013.03;;;6.53
49567;BMP280;35472;50.514;30.448;2024-01-30T11:24:40;102009.88;;;6.68
49567;BMP280;35472;50.514;30.448;2024-01-30T11:27:09;102012.13;;;6.95
49567;BMP280;35472;50.514;30.448;2024-01-30T11:29:37;102003.78;;;7.05
49567;BMP280;35472;50.514;30.448;2024-01-30T11:32:03;102005.19;;;6.94
49567;BMP280;35472;50.514;30.448;2024-01-30T11:34:29;101999.72;;;6.90
49567;BMP280;35472;50.514;30.448;2024-01-30T11:36:56;102000.81;;;6.98
49567;BMP280;35472;50.514;30.448;2024-01-30T11:39:25;102006.16;;;6.98
49567;BMP280;35472;50.514;30.448;2024-01-30T11:41:56;101994.69;;;6.89
49567;BMP280;35472;50.514;30.448;2024-01-30T11:44:25;101998.97;;;6.56
49567;BMP280;35472;50.514;30.448;2024-01-30T11:46:51;101992.53;;;6.65
49567;BMP280;35472;50.514;30.448;2024-01-30T11:49:17;101990.41;;;6.97
49567;BMP280;35472;50.514;30.448;2024-01-30T11:51:45;101986.38;;;6.73
49567;BMP280;35472;50.514;30.448;2024-01-30T11:54:13;101983.22;;;6.80
49567;BMP280;35472;50.514;30.448;2024-01-30T11:56:39;101980.38;;;6.85
49567;BMP280;35472;50.514;30.448;2024-01-30T11:59:04;101981.19;;;6.77
49567;BMP280;35472;50.514;30.448;2024-01-30T12:01:31;101976.41;;;6.82
49567;BMP280;35472;50.514;30.448;2024-01-30T12:03:58;101972.19;;;6.81
49567;BMP280;35472;50.514;30.448;2024-01-30T12:06:23;101971.13;;;6.57
49567;BMP280;35472;50.514;30.448;2024-01-30T12:08:59;101972.09;;;6.43
49567;BMP280;35472;50.514;30.448;2024-01-30T12:11:25;101976.81;;;6.46
49567;BMP280;35472;50.514;30.448;2024-01-30T12:13:51;101974.72;;;6.69
49567;BMP280;35472;50.514;30.448;2024-01-30T12:16:17;101980.72;;;7.13
49567;BMP280;35472;50.514;30.448;2024-01-30T12:18:43;101975.22;;;6.80
49567;BMP280;35472;50.514;30.448;2024-01-30T12:21:08;101982.75;;;6.78
49567;BMP280;35472;50.514;30.448;2024-01-30T12:23:42;101978.84;;;6.49
49567;BMP280;35472;50.514;30.448;2024-01-30T12:26:08;101980.16;;;6.35
49567;BMP280;35472;50.514;30.448;2024-01-30T12:28:33;101968.19;;;6.07
49567;BMP280;35472;50.514;30.448;2024-01-30T12:31:03;101973.22;;;6.17
49567;BMP280;35472;50.514;30.448;2024-01-30T12:33:29;101969.78;;;5.99
49567;BMP280;35472;50.514;30.448;2024-01-30T12:35:55;101972.59;;;6.20
49567;BMP280;35472;50.514;30.448;2024-01-30T12:38:20;101972.09;;;6.61
49567;BMP280;35472;50.514;30.448;2024-01-30T12:40:49;101972.44;;;6.33
49567;BMP280;35472;50.514;30.448;2024-01-30T12:43:15;101972.72;;;6.66
49567;BMP280;35472;50.514;30.448;2024-01-30T12:45:41;101965.13;;;6.77
49567;BMP280;35472;50.514;30.448;2024-01-30T12:48:07;101979.03;;;7.00
49567;BMP280;35472;50.514;30.448;2024-01-30T12:50:34;101970.38;;;7.03
49567;BMP280;35472;50.514;30.448;2024-01-30T12:53:00;101969.91;;;7.01
49567;BMP280;35472;50.514;30.448;2024-01-30T12:55:26;101973.03;;;7.11
49567;BMP280;35472;50.514;30.448;2024-01-30T12:57:54;101966.81;;;6.90
49567;BMP280;35472;50.514;30.448;2024-01-30T13:00:20;101968.00;;;7.10
49567;BMP280;35472;50.514;30.448;2024-01-30T13:02:45;101964.81;;;6.78
49567;BMP280;35472;50.514;30.448;2024-01-30T13:05:11;101968.00;;;6.46
49567;BMP280;35472;50.514;30.448;2024-01-30T13:07:36;101960.28;;;6.44
49567;BMP280;35472;50.514;30.448;2024-01-30T13:10:02;101949.91;;;6.43
49567;BMP280;35472;50.514;30.448;2024-01-30T13:12:30;101948.69;;;6.40
49567;BMP280;35472;50.514;30.448;2024-01-30T13:14:55;101946.50;;;6.25
49567;BMP280;35472;50.514;30.448;2024-01-30T13:17:21;101937.53;;;6.13
49567;BMP280;35472;50.514;30.448;2024-01-30T13:19:46;101938.63;;;5.94
49567;BMP280;35472;50.514;30.448;2024-01-30T13:22:14;101930.59;;;5.69
49567;BMP280;35472;50.514;30.448;2024-01-30T13:24:39;101929.50;;;5.87
49567;BMP280;35472;50.514;30.448;2024-01-30T13:27:06;101924.44;;;5.51
49567;BMP280;35472;50.514;30.448;2024-01-30T13:29:32;101925.22;;;5.43
49567;BMP280;35472;50.514;30.448;2024-01-30T13:31:57;101924.09;;;5.35
49567;BMP280;35472;50.514;30.448;2024-01-30T13:34:22;101929.34;;;5.66
49567;BMP280;35472;50.514;30.448;2024-01-30T13:36:48;101927.13;;;5.60
49567;BMP280;35472;50.514;30.448;2024-01-30T13:39:14;101921.66;;;5.73
49567;BMP280;35472;50.514;30.448;2024-01-30T13:41:41;101924.47;;;5.68
49567;BMP280;35472;50.514;30.448;2024-01-30T13:44:07;101923.06;;;5.71
49567;BMP280;35472;50.514;30.448;2024-01-30T13:46:34;101926.19;;;5.73